sensor_id;sensor_type;location;lat;lon;timestamp;P1;durP1;ratioP1;P2;durP2;ratioP2
25263;SDS011;13211;51.796;5.808;2022-10-13T00:03:35;25.92;;;13.68;;
25263;SDS011;13211;51.796;5.808;2022-10-13T00:06:04;29.75;;;13.75;;
25263;SDS011;13211;51.796;5.808;2022-10-13T00:08:32;29.67;;;13.88;;
25263;SDS011;13211;51.796;5.808;2022-10-13T00:10:59;30.23;;;14.63;;
25263;SDS011;13211;51.796;5.808;2022-10-13T00:13:28;35.75;;;14.13;;
25263;SDS011;13211;51.796;5.808;2022-10-13T00:15:56;29.52;;;13.60;;
25263;SDS011;13211;51.796;5.808;2022-10-13T00:18:26;30.23;;;13.90;;
25263;SDS011;13211;51.796;5.808;2022-10-13T00:20:55;37.80;;;14.35;;
25263;SDS011;13211;51.796;5.808;2022-10-13T00:23:23;32.03;;;14.85;;
25263;SDS011;13211;51.796;5.808;2022-10-13T00:25:50;31.17;;;13.63;;
25263;SDS011;13211;51.796;5.808;2022-10-13T00:28:18;23.70;;;12.77;;
25263;SDS011;13211;51.796;5.808;2022-10-13T00:30:47;30.27;;;14.93;;
25263;SDS011;13211;51.796;5.808;2022-10-13T00:33:15;32.17;;;14.60;;
25263;SDS011;13211;51.796;5.808;2022-10-13T00:35:46;30.83;;;13.48;;
25263;SDS011;13211;51.796;5.808;2022-10-13T00:38:16;28.08;;;13.95;;
25263;SDS011;13211;51.796;5.808;2022-10-13T00:40:45;33.53;;;14.55;;
25263;SDS011;13211;51.796;5.808;2022-10-13T00:43:24;34.42;;;14.77;;
25263;SDS011;13211;51.796;5.808;2022-10-13T00:45:52;28.42;;;13.52;;
25263;SDS011;13211;51.796;5.808;2022-10-13T00:48:21;28.38;;;14.48;;
25263;SDS011;13211;51.796;5.808;2022-10-13T00:50:50;31.73;;;14.55;;
25263;SDS011;13211;51.796;5.808;2022-10-13T00:53:20;30.00;;;14.85;;
25263;SDS011;13211;51.796;5.808;2022-10-13T00:58:18;31.13;;;14.85;;
25263;SDS011;13211;51.796;5.808;2022-10-13T01:00:49;30.58;;;14.55;;
25263;SDS011;13211;51.796;5.808;2022-10-13T01:03:20;37.55;;;15.95;;
25263;SDS011;13211;51.796;5.808;2022-10-13T01:05:49;34.47;;;15.52;;
25263;SDS011;13211;51.796;5.808;2022-10-13T01:08:19;29.83;;;15.20;;
25263;SDS011;13211;51.796;5.808;2022-10-13T01:11:00;41.30;;;14.77;;
25263;SDS011;13211;51.796;5.808;2022-10-13T01:13:58;30.13;;;15.40;;
25263;SDS011;13211;51.796;5.808;2022-10-13T01:16:32;29.95;;;14.45;;
25263;SDS011;13211;51.796;5.808;2022-10-13T01:19:18;30.65;;;15.30;;
25263;SDS011;13211;51.796;5.808;2022-10-13T01:22:07;28.15;;;14.40;;
25263;SDS011;13211;51.796;5.808;2022-10-13T01:30:14;29.73;;;13.93;;
25263;SDS011;13211;51.796;5.808;2022-10-13T01:35:19;25.27;;;14.38;;
25263;SDS011;13211;51.796;5.808;2022-10-13T01:40:25;36.65;;;15.15;;
25263;SDS011;13211;51.796;5.808;2022-10-13T01:45:56;31.33;;;14.63;;
25263;SDS011;13211;51.796;5.808;2022-10-13T01:50:54;36.33;;;15.18;;
25263;SDS011;13211;51.796;5.808;2022-10-13T01:53:23;37.38;;;15.40;;
25263;SDS011;13211;51.796;5.808;2022-10-13T01:55:56;31.70;;;15.30;;
25263;SDS011;13211;51.796;5.808;2022-10-13T01:58:26;35.40;;;14.57;;
25263;SDS011;13211;51.796;5.808;2022-10-13T02:03:35;34.28;;;14.70;;
25263;SDS011;13211;51.796;5.808;2022-10-13T02:06:09;31.88;;;14.68;;
25263;SDS011;13211;51.796;5.808;2022-10-13T02:13:39;32.47;;;15.18;;
25263;SDS011;13211;51.796;5.808;2022-10-13T02:16:08;31.65;;;14.65;;
25263;SDS011;13211;51.796;5.808;2022-10-13T02:18:36;26.58;;;13.60;;
25263;SDS011;13211;51.796;5.808;2022-10-13T02:21:04;30.70;;;13.82;;
25263;SDS011;13211;51.796;5.808;2022-10-13T02:23:32;30.77;;;13.85;;
25263;SDS011;13211;51.796;5.808;2022-10-13T02:25:59;24.92;;;13.50;;
25263;SDS011;13211;51.796;5.808;2022-10-13T02:28:28;28.52;;;14.30;;
25263;SDS011;13211;51.796;5.808;2022-10-13T02:30:56;29.42;;;14.38;;
25263;SDS011;13211;51.796;5.808;2022-10-13T02:33:23;27.50;;;14.35;;
25263;SDS011;13211;51.796;5.808;2022-10-13T02:35:52;25.95;;;12.85;;
25263;SDS011;13211;51.796;5.808;2022-10-13T02:38:20;36.75;;;14.25;;
25263;SDS011;13211;51.796;5.808;2022-10-13T02:40:48;28.75;;;13.02;;
25263;SDS011;13211;51.796;5.808;2022-10-13T02:43:19;27.15;;;13.82;;
25263;SDS011;13211;51.796;5.808;2022-10-13T02:45:47;25.30;;;13.40;;
25263;SDS011;13211;51.796;5.808;2022-10-13T02:48:15;31.60;;;14.40;;
25263;SDS011;13211;51.796;5.808;2022-10-13T02:50:43;28.38;;;12.68;;
25263;SDS011;13211;51.796;5.808;2022-10-13T02:53:10;29.35;;;13.68;;
25263;SDS011;13211;51.796;5.808;2022-10-13T02:55:38;22.00;;;12.85;;
25263;SDS011;13211;51.796;5.808;2022-10-13T02:58:05;27.98;;;13.02;;
25263;SDS011;13211;51.796;5.808;2022-10-13T03:00:33;33.83;;;14.13;;
25263;SDS011;13211;51.796;5.808;2022-10-13T03:03:00;31.58;;;14.40;;
25263;SDS011;13211;51.796;5.808;2022-10-13T03:05:29;27.98;;;13.10;;
25263;SDS011;13211;51.796;5.808;2022-10-13T03:07:56;32.53;;;13.55;;
25263;SDS011;13211;51.796;5.808;2022-10-13T03:10:24;28.48;;;13.80;;
25263;SDS011;13211;51.796;5.808;2022-10-13T03:12:53;27.40;;;13.70;;
25263;SDS011;13211;51.796;5.808;2022-10-13T03:15:22;26.67;;;13.18;;
25263;SDS011;13211;51.796;5.808;2022-10-13T03:17:53;33.65;;;13.90;;
25263;SDS011;13211;51.796;5.808;2022-10-13T03:20:20;26.63;;;13.85;;
25263;SDS011;13211;51.796;5.808;2022-10-13T03:22:49;31.15;;;14.15;;
25263;SDS011;13211;51.796;5.808;2022-10-13T03:25:19;27.13;;;13.07;;
25263;SDS011;13211;51.796;5.808;2022-10-13T03:27:50;24.05;;;13.50;;
25263;SDS011;13211;51.796;5.808;2022-10-13T03:30:21;27.10;;;12.88;;
25263;SDS011;13211;51.796;5.808;2022-10-13T03:32:50;29.50;;;14.25;;
25263;SDS011;13211;51.796;5.808;2022-10-13T03:35:20;31.20;;;14.70;;
25263;SDS011;13211;51.796;5.808;2022-10-13T03:37:48;37.28;;;14.48;;
25263;SDS011;13211;51.796;5.808;2022-10-13T03:40:22;31.25;;;14.93;;
25263;SDS011;13211;51.796;5.808;2022-10-13T03:42:50;29.67;;;13.95;;
25263;SDS011;13211;51.796;5.808;2022-10-13T03:45:22;31.85;;;14.55;;
25263;SDS011;13211;51.796;5.808;2022-10-13T03:47:53;38.15;;;15.10;;
25263;SDS011;13211;51.796;5.808;2022-10-13T03:50:22;30.00;;;14.70;;
25263;SDS011;13211;51.796;5.808;2022-10-13T03:52:52;29.33;;;15.10;;
25263;SDS011;13211;51.796;5.808;2022-10-13T03:55:20;36.97;;;15.05;;
25263;SDS011;13211;51.796;5.808;2022-10-13T03:57:49;29.40;;;14.35;;
25263;SDS011;13211;51.796;5.808;2022-10-13T04:00:18;35.38;;;14.80;;
25263;SDS011;13211;51.796;5.808;2022-10-13T04:02:48;30.55;;;15.32;;
25263;SDS011;13211;51.796;5.808;2022-10-13T04:05:15;28.02;;;13.82;;
25263;SDS011;13211;51.796;5.808;2022-10-13T04:07:43;34.17;;;16.63;;
25263;SDS011;13211;51.796;5.808;2022-10-13T04:10:17;32.25;;;15.38;;
25263;SDS011;13211;51.796;5.808;2022-10-13T04:12:47;39.67;;;16.02;;
25263;SDS011;13211;51.796;5.808;2022-10-13T04:15:16;30.08;;;14.80;;
25263;SDS011;13211;51.796;5.808;2022-10-13T04:17:43;30.92;;;14.82;;
25263;SDS011;13211;51.796;5.808;2022-10-13T04:20:11;31.23;;;16.17;;
25263;SDS011;13211;51.796;5.808;2022-10-13T04:22:39;33.75;;;15.15;;
25263;SDS011;13211;51.796;5.808;2022-10-13T04:25:06;31.35;;;14.65;;
25263;SDS011;13211;51.796;5.808;2022-10-13T04:27:34;29.50;;;14.02;;
25263;SDS011;13211;51.796;5.808;2022-10-13T04:30:04;41.83;;;15.63;;
25263;SDS011;13211;51.796;5.808;2022-10-13T04:32:32;25.73;;;13.80;;
25263;SDS011;13211;51.796;5.808;2022-10-13T04:35:01;32.80;;;14.10;;
25263;SDS011;13211;51.796;5.808;2022-10-13T04:37:29;37.40;;;15.43;;
25263;SDS011;13211;51.796;5.808;2022-10-13T04:39:57;28.52;;;14.80;;
25263;SDS011;13211;51.796;5.808;2022-10-13T04:42:24;29.10;;;13.90;;
25263;SDS011;13211;51.796;5.808;2022-10-13T04:44:52;33.45;;;14.57;;
25263;SDS011;13211;51.796;5.808;2022-10-13T04:49:50;30.33;;;14.25;;
25263;SDS011;13211;51.796;5.808;2022-10-13T04:52:18;31.65;;;14.20;;
25263;SDS011;13211;51.796;5.808;2022-10-13T04:54:48;29.85;;;14.30;;
25263;SDS011;13211;51.796;5.808;2022-10-13T04:57:16;34.92;;;15.05;;
25263;SDS011;13211;51.796;5.808;2022-10-13T04:59:43;33.75;;;14.73;;
25263;SDS011;13211;51.796;5.808;2022-10-13T05:02:11;29.90;;;14.85;;
25263;SDS011;13211;51.796;5.808;2022-10-13T05:04:38;30.15;;;14.73;;
25263;SDS011;13211;51.796;5.808;2022-10-13T05:07:09;26.92;;;13.45;;
25263;SDS011;13211;51.796;5.808;2022-10-13T05:09:45;27.52;;;14.45;;
25263;SDS011;13211;51.796;5.808;2022-10-13T05:12:13;32.05;;;15.32;;
25263;SDS011;13211;51.796;5.808;2022-10-13T05:14:41;39.28;;;14.30;;
25263;SDS011;13211;51.796;5.808;2022-10-13T05:17:10;27.27;;;14.75;;
25263;SDS011;13211;51.796;5.808;2022-10-13T05:19:39;35.03;;;15.88;;
25263;SDS011;13211;51.796;5.808;2022-10-13T05:22:06;33.40;;;14.82;;
25263;SDS011;13211;51.796;5.808;2022-10-13T05:24:34;34.72;;;14.55;;
25263;SDS011;13211;51.796;5.808;2022-10-13T05:27:06;49.45;;;15.25;;
25263;SDS011;13211;51.796;5.808;2022-10-13T05:29:33;28.13;;;14.02;;
25263;SDS011;13211;51.796;5.808;2022-10-13T05:32:04;29.58;;;14.55;;
25263;SDS011;13211;51.796;5.808;2022-10-13T05:34:33;31.65;;;15.30;;
25263;SDS011;13211;51.796;5.808;2022-10-13T05:37:01;29.20;;;14.23;;
25263;SDS011;13211;51.796;5.808;2022-10-13T05:41:59;31.85;;;14.27;;
25263;SDS011;13211;51.796;5.808;2022-10-13T05:44:26;27.13;;;13.93;;
25263;SDS011;13211;51.796;5.808;2022-10-13T05:46:54;37.67;;;15.30;;
25263;SDS011;13211;51.796;5.808;2022-10-13T05:49:22;29.95;;;13.65;;
25263;SDS011;13211;51.796;5.808;2022-10-13T05:51:51;31.73;;;15.23;;
25263;SDS011;13211;51.796;5.808;2022-10-13T05:54:27;32.50;;;15.45;;
25263;SDS011;13211;51.796;5.808;2022-10-13T05:56:58;36.30;;;15.07;;
25263;SDS011;13211;51.796;5.808;2022-10-13T05:59:27;31.55;;;15.65;;
25263;SDS011;13211;51.796;5.808;2022-10-13T06:01:56;29.25;;;14.90;;
25263;SDS011;13211;51.796;5.808;2022-10-13T06:04:27;26.20;;;14.27;;
25263;SDS011;13211;51.796;5.808;2022-10-13T06:06:56;27.92;;;14.35;;
25263;SDS011;13211;51.796;5.808;2022-10-13T06:09:26;29.17;;;14.32;;
25263;SDS011;13211;51.796;5.808;2022-10-13T06:12:03;36.65;;;14.63;;
25263;SDS011;13211;51.796;5.808;2022-10-13T06:14:31;35.03;;;15.27;;
25263;SDS011;13211;51.796;5.808;2022-10-13T06:17:02;29.55;;;15.18;;
25263;SDS011;13211;51.796;5.808;2022-10-13T06:19:29;33.22;;;14.68;;
25263;SDS011;13211;51.796;5.808;2022-10-13T06:22:05;31.27;;;14.93;;
25263;SDS011;13211;51.796;5.808;2022-10-13T06:24:33;27.33;;;14.65;;
25263;SDS011;13211;51.796;5.808;2022-10-13T06:27:03;28.00;;;14.70;;
25263;SDS011;13211;51.796;5.808;2022-10-13T06:29:31;31.63;;;14.52;;
25263;SDS011;13211;51.796;5.808;2022-10-13T06:31:59;39.53;;;15.52;;
25263;SDS011;13211;51.796;5.808;2022-10-13T06:34:27;30.45;;;14.38;;
25263;SDS011;13211;51.796;5.808;2022-10-13T06:36:55;29.83;;;14.95;;
25263;SDS011;13211;51.796;5.808;2022-10-13T06:39:23;33.92;;;15.18;;
25263;SDS011;13211;51.796;5.808;2022-10-13T06:41:52;29.20;;;15.45;;
25263;SDS011;13211;51.796;5.808;2022-10-13T06:44:28;31.83;;;15.82;;
25263;SDS011;13211;51.796;5.808;2022-10-13T06:47:00;36.92;;;16.42;;
25263;SDS011;13211;51.796;5.808;2022-10-13T06:49:29;36.13;;;15.82;;
25263;SDS011;13211;51.796;5.808;2022-10-13T06:51:56;26.88;;;14.48;;
25263;SDS011;13211;51.796;5.808;2022-10-13T06:54:24;28.85;;;14.80;;
25263;SDS011;13211;51.796;5.808;2022-10-13T06:56:52;38.22;;;15.50;;
25263;SDS011;13211;51.796;5.808;2022-10-13T06:59:20;34.88;;;16.15;;
25263;SDS011;13211;51.796;5.808;2022-10-13T07:01:53;32.67;;;15.70;;
25263;SDS011;13211;51.796;5.808;2022-10-13T07:04:22;31.80;;;16.95;;
25263;SDS011;13211;51.796;5.808;2022-10-13T07:06:55;31.98;;;16.55;;
25263;SDS011;13211;51.796;5.808;2022-10-13T07:09:24;35.25;;;16.75;;
25263;SDS011;13211;51.796;5.808;2022-10-13T07:11:52;37.80;;;16.88;;
25263;SDS011;13211;51.796;5.808;2022-10-13T07:14:19;33.10;;;16.52;;
25263;SDS011;13211;51.796;5.808;2022-10-13T07:16:48;40.15;;;16.58;;
25263;SDS011;13211;51.796;5.808;2022-10-13T07:19:15;35.33;;;16.13;;
25263;SDS011;13211;51.796;5.808;2022-10-13T07:21:43;34.13;;;16.23;;
25263;SDS011;13211;51.796;5.808;2022-10-13T07:24:10;34.70;;;16.50;;
25263;SDS011;13211;51.796;5.808;2022-10-13T07:26:38;40.25;;;18.10;;
25263;SDS011;13211;51.796;5.808;2022-10-13T07:29:06;36.40;;;17.38;;
25263;SDS011;13211;51.796;5.808;2022-10-13T07:31:34;36.17;;;17.75;;
25263;SDS011;13211;51.796;5.808;2022-10-13T07:34:03;36.85;;;17.50;;
25263;SDS011;13211;51.796;5.808;2022-10-13T07:36:32;38.47;;;17.38;;
25263;SDS011;13211;51.796;5.808;2022-10-13T07:39:01;33.15;;;18.02;;
25263;SDS011;13211;51.796;5.808;2022-10-13T07:41:29;35.00;;;17.42;;
25263;SDS011;13211;51.796;5.808;2022-10-13T07:43:57;40.40;;;18.02;;
25263;SDS011;13211;51.796;5.808;2022-10-13T07:46:25;35.28;;;17.60;;
25263;SDS011;13211;51.796;5.808;2022-10-13T07:48:53;32.15;;;16.80;;
25263;SDS011;13211;51.796;5.808;2022-10-13T07:51:22;34.00;;;17.45;;
25263;SDS011;13211;51.796;5.808;2022-10-13T07:53:49;37.00;;;17.63;;
25263;SDS011;13211;51.796;5.808;2022-10-13T07:56:18;37.58;;;17.70;;
25263;SDS011;13211;51.796;5.808;2022-10-13T07:58:47;38.65;;;18.33;;
25263;SDS011;13211;51.796;5.808;2022-10-13T08:01:15;40.28;;;18.58;;
25263;SDS011;13211;51.796;5.808;2022-10-13T08:03:43;35.22;;;17.27;;
25263;SDS011;13211;51.796;5.808;2022-10-13T08:06:20;37.70;;;17.85;;
25263;SDS011;13211;51.796;5.808;2022-10-13T08:08:52;43.58;;;19.38;;
25263;SDS011;13211;51.796;5.808;2022-10-13T08:11:22;37.25;;;17.50;;
25263;SDS011;13211;51.796;5.808;2022-10-13T08:13:50;37.13;;;17.63;;
25263;SDS011;13211;51.796;5.808;2022-10-13T08:16:22;32.70;;;18.15;;
25263;SDS011;13211;51.796;5.808;2022-10-13T08:18:49;37.03;;;18.20;;
25263;SDS011;13211;51.796;5.808;2022-10-13T08:21:17;36.03;;;17.58;;
25263;SDS011;13211;51.796;5.808;2022-10-13T08:24:06;38.67;;;17.42;;
25263;SDS011;13211;51.796;5.808;2022-10-13T08:26:35;34.28;;;17.95;;
25263;SDS011;13211;51.796;5.808;2022-10-13T08:29:02;35.53;;;18.55;;
25263;SDS011;13211;51.796;5.808;2022-10-13T08:31:49;37.75;;;18.27;;
25263;SDS011;13211;51.796;5.808;2022-10-13T08:34:19;41.25;;;18.58;;
25263;SDS011;13211;51.796;5.808;2022-10-13T08:36:47;37.67;;;18.30;;
25263;SDS011;13211;51.796;5.808;2022-10-13T08:39:20;38.22;;;17.90;;
25263;SDS011;13211;51.796;5.808;2022-10-13T08:41:48;36.72;;;18.38;;
25263;SDS011;13211;51.796;5.808;2022-10-13T08:47:15;36.20;;;18.20;;
25263;SDS011;13211;51.796;5.808;2022-10-13T08:49:44;36.97;;;17.42;;
25263;SDS011;13211;51.796;5.808;2022-10-13T08:52:15;40.92;;;16.73;;
25263;SDS011;13211;51.796;5.808;2022-10-13T08:54:44;34.28;;;17.45;;
25263;SDS011;13211;51.796;5.808;2022-10-13T08:57:13;38.17;;;17.58;;
25263;SDS011;13211;51.796;5.808;2022-10-13T08:59:41;40.35;;;17.95;;
25263;SDS011;13211;51.796;5.808;2022-10-13T09:02:10;37.15;;;17.17;;
25263;SDS011;13211;51.796;5.808;2022-10-13T09:04:39;32.00;;;16.67;;
25263;SDS011;13211;51.796;5.808;2022-10-13T09:09:35;41.38;;;17.45;;
25263;SDS011;13211;51.796;5.808;2022-10-13T09:12:03;31.52;;;17.02;;
25263;SDS011;13211;51.796;5.808;2022-10-13T09:14:35;40.03;;;16.88;;
25263;SDS011;13211;51.796;5.808;2022-10-13T09:17:18;29.50;;;14.55;;
25263;SDS011;13211;51.796;5.808;2022-10-13T09:20:00;35.30;;;16.38;;
25263;SDS011;13211;51.796;5.808;2022-10-13T09:22:31;32.08;;;15.65;;
25263;SDS011;13211;51.796;5.808;2022-10-13T09:33:13;34.67;;;15.73;;
25263;SDS011;13211;51.796;5.808;2022-10-13T09:35:43;40.92;;;16.27;;
25263;SDS011;13211;51.796;5.808;2022-10-13T09:40:43;30.58;;;15.88;;
25263;SDS011;13211;51.796;5.808;2022-10-13T09:43:27;31.40;;;14.35;;
25263;SDS011;13211;51.796;5.808;2022-10-13T09:45:55;31.05;;;14.80;;
25263;SDS011;13211;51.796;5.808;2022-10-13T09:48:26;37.88;;;14.90;;
25263;SDS011;13211;51.796;5.808;2022-10-13T09:50:55;29.75;;;14.55;;
25263;SDS011;13211;51.796;5.808;2022-10-13T09:53:44;28.45;;;15.13;;
25263;SDS011;13211;51.796;5.808;2022-10-13T09:56:17;34.15;;;15.13;;
25263;SDS011;13211;51.796;5.808;2022-10-13T10:01:38;32.03;;;14.50;;
25263;SDS011;13211;51.796;5.808;2022-10-13T10:04:15;27.30;;;13.65;;
25263;SDS011;13211;51.796;5.808;2022-10-13T10:06:44;30.52;;;13.68;;
25263;SDS011;13211;51.796;5.808;2022-10-13T10:11:44;33.70;;;14.32;;
25263;SDS011;13211;51.796;5.808;2022-10-13T10:19:21;29.27;;;14.10;;
25263;SDS011;13211;51.796;5.808;2022-10-13T10:24:28;27.77;;;13.95;;
25263;SDS011;13211;51.796;5.808;2022-10-13T10:27:17;27.98;;;14.07;;
25263;SDS011;13211;51.796;5.808;2022-10-13T10:29:56;29.55;;;13.93;;
25263;SDS011;13211;51.796;5.808;2022-10-13T10:32:32;28.63;;;14.20;;
25263;SDS011;13211;51.796;5.808;2022-10-13T10:35:05;28.92;;;13.60;;
25263;SDS011;13211;51.796;5.808;2022-10-13T10:37:41;28.98;;;14.40;;
25263;SDS011;13211;51.796;5.808;2022-10-13T10:45:22;35.08;;;14.40;;
25263;SDS011;13211;51.796;5.808;2022-10-13T10:48:06;31.58;;;14.95;;
25263;SDS011;13211;51.796;5.808;2022-10-13T10:50:39;27.48;;;14.40;;
25263;SDS011;13211;51.796;5.808;2022-10-13T10:53:30;27.05;;;14.75;;
25263;SDS011;13211;51.796;5.808;2022-10-13T11:03:53;29.80;;;15.07;;
25263;SDS011;13211;51.796;5.808;2022-10-13T11:06:24;59.47;;;16.98;;
25263;SDS011;13211;51.796;5.808;2022-10-13T11:08:54;34.92;;;16.10;;
25263;SDS011;13211;51.796;5.808;2022-10-13T11:19:02;33.92;;;16.42;;
25263;SDS011;13211;51.796;5.808;2022-10-13T11:40:57;28.38;;;16.05;;
25263;SDS011;13211;51.796;5.808;2022-10-13T11:51:48;30.92;;;16.27;;
25263;SDS011;13211;51.796;5.808;2022-10-13T11:54:25;30.73;;;15.80;;
25263;SDS011;13211;51.796;5.808;2022-10-13T11:56:57;31.77;;;15.52;;
25263;SDS011;13211;51.796;5.808;2022-10-13T11:59:26;32.88;;;16.08;;
25263;SDS011;13211;51.796;5.808;2022-10-13T12:02:09;29.67;;;15.13;;
25263;SDS011;13211;51.796;5.808;2022-10-13T12:04:57;30.63;;;15.07;;
25263;SDS011;13211;51.796;5.808;2022-10-13T12:07:25;26.55;;;15.05;;
25263;SDS011;13211;51.796;5.808;2022-10-13T12:09:55;29.90;;;15.43;;
25263;SDS011;13211;51.796;5.808;2022-10-13T12:12:24;22.25;;;14.23;;
25263;SDS011;13211;51.796;5.808;2022-10-13T12:14:54;28.73;;;14.32;;
25263;SDS011;13211;51.796;5.808;2022-10-13T12:17:27;28.27;;;14.30;;
25263;SDS011;13211;51.796;5.808;2022-10-13T12:20:00;25.48;;;14.30;;
25263;SDS011;13211;51.796;5.808;2022-10-13T12:22:29;30.17;;;15.15;;
25263;SDS011;13211;51.796;5.808;2022-10-13T12:24:58;27.85;;;13.95;;
25263;SDS011;13211;51.796;5.808;2022-10-13T12:27:26;31.58;;;15.45;;
25263;SDS011;13211;51.796;5.808;2022-10-13T12:29:54;24.80;;;14.73;;
25263;SDS011;13211;51.796;5.808;2022-10-13T12:32:23;26.52;;;14.45;;
25263;SDS011;13211;51.796;5.808;2022-10-13T12:34:52;34.10;;;15.13;;
25263;SDS011;13211;51.796;5.808;2022-10-13T12:37:32;28.58;;;13.70;;
25263;SDS011;13211;51.796;5.808;2022-10-13T12:39:59;28.42;;;13.50;;
25263;SDS011;13211;51.796;5.808;2022-10-13T12:42:29;30.77;;;15.15;;
25263;SDS011;13211;51.796;5.808;2022-10-13T12:52:55;28.92;;;15.73;;
25263;SDS011;13211;51.796;5.808;2022-10-13T12:57:52;31.75;;;16.00;;
25263;SDS011;13211;51.796;5.808;2022-10-13T13:00:21;35.00;;;15.93;;
25263;SDS011;13211;51.796;5.808;2022-10-13T13:05:34;27.23;;;15.88;;
25263;SDS011;13211;51.796;5.808;2022-10-13T13:08:03;38.38;;;17.67;;
25263;SDS011;13211;51.796;5.808;2022-10-13T13:10:31;29.77;;;16.30;;
25263;SDS011;13211;51.796;5.808;2022-10-13T13:13:11;31.88;;;16.85;;
25263;SDS011;13211;51.796;5.808;2022-10-13T13:15:39;37.42;;;18.38;;
25263;SDS011;13211;51.796;5.808;2022-10-13T13:21:10;32.95;;;17.95;;
25263;SDS011;13211;51.796;5.808;2022-10-13T13:23:40;32.30;;;18.00;;
25263;SDS011;13211;51.796;5.808;2022-10-13T13:26:13;32.92;;;17.35;;
25263;SDS011;13211;51.796;5.808;2022-10-13T13:28:43;34.33;;;17.70;;
25263;SDS011;13211;51.796;5.808;2022-10-13T13:31:13;31.90;;;18.15;;
25263;SDS011;13211;51.796;5.808;2022-10-13T13:33:42;30.85;;;17.38;;
25263;SDS011;13211;51.796;5.808;2022-10-13T13:36:12;31.65;;;16.60;;
25263;SDS011;13211;51.796;5.808;2022-10-13T13:38:44;27.00;;;15.73;;
25263;SDS011;13211;51.796;5.808;2022-10-13T13:41:13;30.45;;;16.48;;
25263;SDS011;13211;51.796;5.808;2022-10-13T13:43:41;31.55;;;16.30;;
25263;SDS011;13211;51.796;5.808;2022-10-13T13:46:16;31.83;;;17.13;;
25263;SDS011;13211;51.796;5.808;2022-10-13T13:48:45;34.80;;;16.40;;
25263;SDS011;13211;51.796;5.808;2022-10-13T13:51:14;26.42;;;16.33;;
25263;SDS011;13211;51.796;5.808;2022-10-13T13:53:43;31.70;;;16.73;;
25263;SDS011;13211;51.796;5.808;2022-10-13T13:56:17;29.52;;;15.88;;
25263;SDS011;13211;51.796;5.808;2022-10-13T13:58:45;30.52;;;16.70;;
25263;SDS011;13211;51.796;5.808;2022-10-13T14:01:14;31.42;;;16.33;;
25263;SDS011;13211;51.796;5.808;2022-10-13T14:03:41;32.08;;;16.95;;
25263;SDS011;13211;51.796;5.808;2022-10-13T14:06:16;29.35;;;16.98;;
25263;SDS011;13211;51.796;5.808;2022-10-13T14:08:44;30.33;;;16.90;;
25263;SDS011;13211;51.796;5.808;2022-10-13T14:11:12;28.55;;;16.10;;
25263;SDS011;13211;51.796;5.808;2022-10-13T14:13:43;34.47;;;17.52;;
25263;SDS011;13211;51.796;5.808;2022-10-13T14:16:22;32.58;;;16.63;;
25263;SDS011;13211;51.796;5.808;2022-10-13T14:18:55;33.42;;;16.02;;
25263;SDS011;13211;51.796;5.808;2022-10-13T14:21:24;37.65;;;17.83;;
25263;SDS011;13211;51.796;5.808;2022-10-13T14:23:55;30.45;;;17.10;;
25263;SDS011;13211;51.796;5.808;2022-10-13T14:26:22;34.13;;;17.85;;
25263;SDS011;13211;51.796;5.808;2022-10-13T14:28:50;33.72;;;18.02;;
25263;SDS011;13211;51.796;5.808;2022-10-13T14:31:20;38.78;;;18.30;;
25263;SDS011;13211;51.796;5.808;2022-10-13T14:33:52;36.55;;;18.95;;
25263;SDS011;13211;51.796;5.808;2022-10-13T14:38:49;32.83;;;17.60;;
25263;SDS011;13211;51.796;5.808;2022-10-13T14:41:18;33.75;;;18.85;;
25263;SDS011;13211;51.796;5.808;2022-10-13T14:43:50;32.57;;;17.63;;
25263;SDS011;13211;51.796;5.808;2022-10-13T14:46:19;39.85;;;19.98;;
25263;SDS011;13211;51.796;5.808;2022-10-13T14:48:47;33.97;;;17.15;;
25263;SDS011;13211;51.796;5.808;2022-10-13T14:51:15;38.42;;;18.55;;
25263;SDS011;13211;51.796;5.808;2022-10-13T14:53:44;37.80;;;19.35;;
25263;SDS011;13211;51.796;5.808;2022-10-13T14:56:16;36.22;;;18.13;;
25263;SDS011;13211;51.796;5.808;2022-10-13T14:58:50;30.63;;;18.40;;
25263;SDS011;13211;51.796;5.808;2022-10-13T15:01:22;30.83;;;18.33;;
25263;SDS011;13211;51.796;5.808;2022-10-13T15:03:50;32.60;;;18.15;;
25263;SDS011;13211;51.796;5.808;2022-10-13T15:06:21;31.40;;;17.25;;
25263;SDS011;13211;51.796;5.808;2022-10-13T15:08:49;29.55;;;18.27;;
25263;SDS011;13211;51.796;5.808;2022-10-13T15:11:25;31.02;;;17.00;;
25263;SDS011;13211;51.796;5.808;2022-10-13T15:13:53;33.75;;;18.30;;
25263;SDS011;13211;51.796;5.808;2022-10-13T15:16:23;33.55;;;17.48;;
25263;SDS011;13211;51.796;5.808;2022-10-13T15:18:52;31.95;;;18.00;;
25263;SDS011;13211;51.796;5.808;2022-10-13T15:21:19;35.78;;;17.65;;
25263;SDS011;13211;51.796;5.808;2022-10-13T15:23:50;40.53;;;18.25;;
25263;SDS011;13211;51.796;5.808;2022-10-13T15:26:20;28.02;;;16.75;;
25263;SDS011;13211;51.796;5.808;2022-10-13T15:28:50;37.25;;;17.85;;
25263;SDS011;13211;51.796;5.808;2022-10-13T15:31:22;32.20;;;17.77;;
25263;SDS011;13211;51.796;5.808;2022-10-13T15:33:51;29.02;;;17.88;;
25263;SDS011;13211;51.796;5.808;2022-10-13T15:36:20;27.80;;;16.83;;
25263;SDS011;13211;51.796;5.808;2022-10-13T15:38:55;30.30;;;17.73;;
25263;SDS011;13211;51.796;5.808;2022-10-13T15:41:22;31.90;;;18.05;;
25263;SDS011;13211;51.796;5.808;2022-10-13T15:43:52;35.10;;;18.08;;
25263;SDS011;13211;51.796;5.808;2022-10-13T15:46:19;30.67;;;17.85;;
25263;SDS011;13211;51.796;5.808;2022-10-13T15:48:49;31.20;;;17.88;;
25263;SDS011;13211;51.796;5.808;2022-10-13T15:51:19;32.70;;;17.77;;
25263;SDS011;13211;51.796;5.808;2022-10-13T15:53:50;30.40;;;18.52;;
25263;SDS011;13211;51.796;5.808;2022-10-13T15:56:21;29.83;;;17.92;;
25263;SDS011;13211;51.796;5.808;2022-10-13T15:58:49;36.10;;;18.67;;
25263;SDS011;13211;51.796;5.808;2022-10-13T16:01:17;38.03;;;18.25;;
25263;SDS011;13211;51.796;5.808;2022-10-13T16:03:45;35.85;;;19.52;;
25263;SDS011;13211;51.796;5.808;2022-10-13T16:06:12;36.08;;;18.38;;
25263;SDS011;13211;51.796;5.808;2022-10-13T16:08:41;32.08;;;18.50;;
25263;SDS011;13211;51.796;5.808;2022-10-13T16:11:13;29.42;;;18.10;;
25263;SDS011;13211;51.796;5.808;2022-10-13T16:13:44;30.95;;;18.40;;
25263;SDS011;13211;51.796;5.808;2022-10-13T16:16:12;37.15;;;19.20;;
25263;SDS011;13211;51.796;5.808;2022-10-13T16:18:40;30.60;;;18.27;;
25263;SDS011;13211;51.796;5.808;2022-10-13T16:23:43;49.40;;;20.27;;
25263;SDS011;13211;51.796;5.808;2022-10-13T16:26:11;29.85;;;18.20;;
25263;SDS011;13211;51.796;5.808;2022-10-13T16:28:39;37.47;;;20.55;;
25263;SDS011;13211;51.796;5.808;2022-10-13T16:31:07;35.58;;;19.58;;
25263;SDS011;13211;51.796;5.808;2022-10-13T16:33:40;30.60;;;18.50;;
25263;SDS011;13211;51.796;5.808;2022-10-13T16:36:13;33.42;;;19.42;;
25263;SDS011;13211;51.796;5.808;2022-10-13T16:38:41;33.63;;;19.52;;
25263;SDS011;13211;51.796;5.808;2022-10-13T16:41:13;32.75;;;19.88;;
25263;SDS011;13211;51.796;5.808;2022-10-13T16:43:42;35.35;;;20.17;;
25263;SDS011;13211;51.796;5.808;2022-10-13T16:46:10;32.78;;;20.10;;
25263;SDS011;13211;51.796;5.808;2022-10-13T16:48:41;31.65;;;20.38;;
25263;SDS011;13211;51.796;5.808;2022-10-13T16:51:14;33.78;;;20.15;;